createdAt,value
2017-11-23T00:00:23.165Z,0
2017-11-23T00:01:31.970Z,0
2017-11-23T00:02:40.780Z,0
2017-11-23T00:03:49.597Z,0
2017-11-23T00:04:58.407Z,0
2017-11-23T00:06:07.224Z,0
2017-11-23T00:07:16.031Z,0
2017-11-23T00:08:24.842Z,0
2017-11-23T00:09:33.657Z,0
2017-11-23T00:10:48.460Z,0
2017-11-23T00:11:57.274Z,0
2017-11-23T00:13:06.092Z,0
2017-11-23T00:14:15.171Z,0
2017-11-23T00:15:23.984Z,0
2017-11-23T00:16:32.524Z,0
2017-11-23T00:17:41.065Z,0
2017-11-23T00:18:49.886Z,0
2017-11-23T00:19:58.422Z,0
2017-11-23T00:21:06.961Z,0
2017-11-23T00:22:15.769Z,0
2017-11-23T00:23:24.582Z,0
2017-11-23T00:24:33.657Z,0
2017-11-23T00:25:42.737Z,0
2017-11-23T00:26:51.476Z,0
2017-11-23T00:28:00.288Z,0
2017-11-23T00:29:09.098Z,0
2017-11-23T00:30:17.920Z,0
2017-11-23T00:31:26.743Z,0
2017-11-23T00:32:35.577Z,0
2017-11-23T00:33:44.103Z,0
2017-11-23T00:34:52.914Z,0
2017-11-23T00:36:01.745Z,0
2017-11-23T00:37:10.558Z,0
2017-11-23T00:38:19.362Z,0
2017-11-23T00:39:28.456Z,0
2017-11-23T00:40:37.267Z,0
2017-11-23T00:41:45.801Z,0
2017-11-23T00:42:54.340Z,0
2017-11-23T00:44:03.149Z,0
2017-11-23T00:45:11.966Z,0
2017-11-23T00:46:20.772Z,0
2017-11-23T00:47:29.311Z,0
2017-11-23T00:48:38.402Z,0
2017-11-23T00:49:47.486Z,0
2017-11-23T00:50:56.027Z,0
2017-11-23T00:52:04.840Z,0
2017-11-23T00:53:13.379Z,0
2017-11-23T00:54:21.915Z,0
2017-11-23T00:55:30.727Z,0
2017-11-23T00:56:39.549Z,0
2017-11-23T00:57:48.089Z,0
2017-11-23T00:58:57.174Z,0
2017-11-23T01:00:06.532Z,0
2017-11-23T01:01:15.072Z,0
2017-11-23T01:02:23.891Z,0
2017-11-23T01:03:32.698Z,0
2017-11-23T01:04:41.510Z,0
2017-11-23T01:05:50.599Z,0
2017-11-23T01:06:59.408Z,0
2017-11-23T01:08:08.494Z,0
2017-11-23T01:09:17.027Z,0
2017-11-23T01:10:26.128Z,0
2017-11-23T01:11:34.957Z,0
2017-11-23T01:12:43.772Z,0
2017-11-23T01:13:52.313Z,0
2017-11-23T01:15:01.400Z,0
2017-11-23T01:16:09.937Z,0
2017-11-23T01:17:19.289Z,0
2017-11-23T01:18:28.196Z,0
2017-11-23T01:19:37.009Z,0
2017-11-23T01:20:45.550Z,0
2017-11-23T01:21:54.358Z,0
2017-11-23T01:23:02.898Z,0
2017-11-23T01:24:11.710Z,0
2017-11-23T01:25:20.249Z,0
2017-11-23T01:26:28.789Z,0
2017-11-23T01:27:37.599Z,0
2017-11-23T01:28:46.416Z,0
2017-11-23T01:29:55.502Z,0
2017-11-23T01:31:04.042Z,0
2017-11-23T01:32:12.581Z,0
2017-11-23T01:33:21.118Z,0
2017-11-23T01:34:29.659Z,0
2017-11-23T01:35:38.196Z,0
2017-11-23T01:36:46.738Z,0
2017-11-23T01:37:55.273Z,0
2017-11-23T01:39:04.084Z,0
2017-11-23T01:40:12.624Z,0
2017-11-23T01:41:21.711Z,0
2017-11-23T01:42:30.526Z,0
2017-11-23T01:43:39.329Z,0
2017-11-23T01:44:47.868Z,0
2017-11-23T01:45:56.946Z,0
2017-11-23T01:47:05.755Z,0
2017-11-23T01:48:14.295Z,0
2017-11-23T01:49:22.835Z,0
2017-11-23T01:50:31.646Z,0
2017-11-23T01:51:40.728Z,0
2017-11-23T01:52:50.077Z,0
2017-11-23T01:53:58.892Z,0
2017-11-23T01:55:07.432Z,0
2017-11-23T01:56:15.974Z,0
2017-11-23T01:57:24.795Z,0
2017-11-23T01:58:33.332Z,0
2017-11-23T01:59:42.689Z,0
2017-11-23T02:00:51.229Z,0
2017-11-23T02:02:00.037Z,0
2017-11-23T02:03:08.860Z,0
2017-11-23T02:04:17.398Z,0
2017-11-23T02:05:26.480Z,0
2017-11-23T02:06:35.300Z,0
2017-11-23T02:07:43.839Z,0
2017-11-23T02:08:52.664Z,0
2017-11-23T02:10:01.472Z,0
2017-11-23T02:11:10.830Z,0
2017-11-23T02:12:19.645Z,0
2017-11-23T02:13:28.456Z,0
2017-11-23T02:14:36.995Z,0
2017-11-23T02:15:45.804Z,0
2017-11-23T02:16:54.625Z,0
2017-11-23T02:18:03.164Z,0
2017-11-23T02:19:12.240Z,0
2017-11-23T02:20:21.320Z,0
2017-11-23T02:21:29.858Z,0
2017-11-23T02:22:38.946Z,0
2017-11-23T02:23:47.485Z,0
2017-11-23T02:24:56.298Z,0
2017-11-23T02:26:05.114Z,0
2017-11-23T02:27:14.203Z,0
2017-11-23T02:28:23.012Z,0
2017-11-23T02:29:31.548Z,0
2017-11-23T02:30:40.086Z,0
2017-11-23T02:31:49.170Z,0
2017-11-23T02:32:57.708Z,0
2017-11-23T02:34:06.251Z,0
2017-11-23T02:35:15.343Z,0
2017-11-23T02:36:23.887Z,0
2017-11-23T02:37:32.718Z,0
2017-11-23T02:38:41.243Z,0
2017-11-23T02:39:50.060Z,0
2017-11-23T02:40:58.881Z,0
2017-11-23T02:42:07.411Z,0
2017-11-23T02:43:16.231Z,0
2017-11-23T02:44:25.324Z,0
2017-11-23T02:45:33.864Z,0
2017-11-23T02:46:42.399Z,0
2017-11-23T02:47:51.218Z,0
2017-11-23T02:49:00.300Z,0
2017-11-23T02:50:08.845Z,0
2017-11-23T02:51:17.667Z,0
2017-11-23T02:52:26.477Z,0
2017-11-23T02:53:35.019Z,0
2017-11-23T02:54:43.829Z,0
2017-11-23T02:55:52.636Z,0
2017-11-23T02:57:01.456Z,0
2017-11-23T02:58:10.264Z,0
2017-11-23T02:59:19.073Z,0
2017-11-23T03:00:27.881Z,0
2017-11-23T03:01:36.692Z,0
2017-11-23T03:02:45.506Z,0
2017-11-23T03:03:54.583Z,0
2017-11-23T03:05:03.139Z,0
2017-11-23T03:06:11.681Z,0
2017-11-23T03:07:20.488Z,0
2017-11-23T03:08:29.297Z,0
2017-11-23T03:09:38.376Z,0
2017-11-23T03:10:46.912Z,0
2017-11-23T03:11:55.993Z,0
2017-11-23T03:13:04.807Z,0
2017-11-23T03:14:13.619Z,0
2017-11-23T03:15:22.711Z,0
2017-11-23T03:16:31.250Z,0
2017-11-23T03:17:40.066Z,0
2017-11-23T03:18:48.600Z,0
2017-11-23T03:19:57.137Z,0
2017-11-23T03:21:06.489Z,0
2017-11-23T03:22:15.028Z,0
2017-11-23T03:23:23.848Z,0
2017-11-23T03:24:32.923Z,0
2017-11-23T03:25:41.459Z,0
2017-11-23T03:26:50.274Z,0
2017-11-23T03:27:58.817Z,0
2017-11-23T03:29:07.895Z,0
2017-11-23T03:30:16.721Z,0
2017-11-23T03:31:25.813Z,0
2017-11-23T03:32:34.622Z,0
2017-11-23T03:33:43.428Z,0
2017-11-23T03:34:51.968Z,0
2017-11-23T03:36:00.512Z,0
2017-11-23T03:37:09.314Z,0
2017-11-23T03:38:17.861Z,0
2017-11-23T03:39:26.978Z,0
2017-11-23T03:40:35.519Z,0
2017-11-23T03:41:44.334Z,0
2017-11-23T03:42:53.145Z,0
2017-11-23T03:44:02.225Z,0
2017-11-23T03:45:11.033Z,0
2017-11-23T03:46:19.848Z,0
2017-11-23T03:47:29.207Z,0
2017-11-23T03:48:38.018Z,0
2017-11-23T03:49:46.568Z,0
2017-11-23T03:50:55.658Z,0
2017-11-23T03:52:05.015Z,0
2017-11-23T03:53:14.103Z,0
2017-11-23T03:54:22.638Z,0
2017-11-23T03:55:31.722Z,0
2017-11-23T03:56:40.538Z,0
2017-11-23T03:57:49.074Z,0
2017-11-23T03:58:57.613Z,0
2017-11-23T04:00:06.707Z,0
2017-11-23T04:01:15.789Z,0
2017-11-23T04:02:24.869Z,0
2017-11-23T04:03:33.408Z,0
2017-11-23T04:04:42.259Z,0
2017-11-23T04:05:50.796Z,0
2017-11-23T04:06:59.603Z,0
2017-11-23T04:08:08.139Z,0
2017-11-23T04:09:17.230Z,0
2017-11-23T04:10:26.042Z,0
2017-11-23T04:11:35.126Z,0
2017-11-23T04:12:43.936Z,0
2017-11-23T04:13:52.478Z,0
2017-11-23T04:15:01.563Z,0
2017-11-23T04:16:10.649Z,0
2017-11-23T04:17:19.189Z,0
2017-11-23T04:18:28.269Z,0
2017-11-23T04:19:37.083Z,0
2017-11-23T04:20:45.896Z,0
2017-11-23T04:21:54.435Z,0
2017-11-23T04:23:03.247Z,0
2017-11-23T04:24:11.802Z,0
2017-11-23T04:25:20.635Z,0
2017-11-23T04:26:29.445Z,0
2017-11-23T04:27:38.256Z,0
2017-11-23T04:28:47.068Z,0
2017-11-23T04:29:56.162Z,0
2017-11-23T04:31:04.970Z,0
2017-11-23T04:32:13.779Z,0
2017-11-23T04:33:22.592Z,0
2017-11-23T04:34:31.131Z,0
2017-11-23T04:35:40.479Z,0
2017-11-23T04:36:49.291Z,0
2017-11-23T04:37:58.368Z,0
2017-11-23T04:39:06.912Z,0
2017-11-23T04:40:15.723Z,0
2017-11-23T04:41:24.802Z,0
2017-11-23T04:42:34.175Z,0
2017-11-23T04:43:43.524Z,0
2017-11-23T04:44:52.061Z,0
2017-11-23T04:46:01.138Z,0
2017-11-23T04:47:09.945Z,0
2017-11-23T04:48:18.754Z,0
2017-11-23T04:49:27.296Z,0
2017-11-23T04:50:36.119Z,0
2017-11-23T04:51:45.483Z,0
2017-11-23T04:52:54.024Z,0
2017-11-23T04:54:02.834Z,0
2017-11-23T04:55:11.646Z,0
2017-11-23T04:56:20.456Z,0
2017-11-23T04:57:28.995Z,0
2017-11-23T04:58:37.805Z,0
2017-11-23T04:59:46.889Z,0
2017-11-23T05:00:55.695Z,0
2017-11-23T05:02:04.234Z,0
2017-11-23T05:03:13.313Z,0
2017-11-23T05:04:21.853Z,0
2017-11-23T05:05:30.660Z,0
2017-11-23T05:06:39.477Z,0
2017-11-23T05:07:48.290Z,0
2017-11-23T05:08:57.099Z,0
2017-11-23T05:10:06.186Z,0
2017-11-23T05:11:14.997Z,0
2017-11-23T05:12:24.084Z,0
2017-11-23T05:13:32.894Z,0
2017-11-23T05:14:41.992Z,0
2017-11-23T05:15:50.805Z,0
2017-11-23T05:16:59.341Z,0
2017-11-23T05:18:08.152Z,0
2017-11-23T05:19:16.973Z,0
2017-11-23T05:20:25.783Z,0
2017-11-23T05:21:34.592Z,0
2017-11-23T05:22:43.951Z,0
2017-11-23T05:23:52.495Z,0
2017-11-23T05:25:01.587Z,0
2017-11-23T05:26:10.395Z,0
2017-11-23T05:27:18.930Z,0
2017-11-23T05:28:27.469Z,0
2017-11-23T05:29:36.280Z,0
2017-11-23T05:30:44.822Z,0
2017-11-23T05:31:53.379Z,0
2017-11-23T05:33:02.177Z,0
2017-11-23T05:34:10.717Z,0
2017-11-23T05:35:19.799Z,0
2017-11-23T05:36:28.609Z,0
2017-11-23T05:37:37.146Z,0
2017-11-23T05:38:45.685Z,0
2017-11-23T05:39:54.770Z,0
2017-11-23T05:41:03.308Z,0
2017-11-23T05:42:12.121Z,0
2017-11-23T05:43:20.937Z,0
2017-11-23T05:44:29.470Z,0
2017-11-23T05:45:38.279Z,0
2017-11-23T05:46:46.819Z,0
2017-11-23T05:47:55.900Z,0
2017-11-23T05:49:04.715Z,0
2017-11-23T05:50:13.803Z,0
2017-11-23T05:51:22.611Z,0
2017-11-23T05:52:31.440Z,0
2017-11-23T05:53:39.978Z,0
2017-11-23T05:54:48.790Z,0
2017-11-23T05:55:57.333Z,0
2017-11-23T05:57:06.433Z,0
2017-11-23T05:58:15.526Z,0
2017-11-23T05:59:24.347Z,0
2017-11-23T06:00:32.888Z,0
2017-11-23T06:01:41.428Z,0
2017-11-23T06:02:50.238Z,0
2017-11-23T06:03:58.781Z,0
2017-11-23T06:05:07.600Z,0
2017-11-23T06:06:16.401Z,0
2017-11-23T06:07:25.486Z,0
2017-11-23T06:08:34.565Z,0
2017-11-23T06:09:43.374Z,0
2017-11-23T06:10:52.185Z,0
2017-11-23T06:12:00.726Z,0
2017-11-23T06:13:09.265Z,0
2017-11-23T06:14:18.073Z,0
2017-11-23T06:15:26.613Z,0
2017-11-23T06:16:35.151Z,0
2017-11-23T06:17:43.691Z,0
2017-11-23T06:18:52.502Z,0
2017-11-23T06:20:01.868Z,0
2017-11-23T06:21:10.961Z,0
2017-11-23T06:22:19.772Z,0
2017-11-23T06:23:28.311Z,0
2017-11-23T06:24:36.851Z,0
2017-11-23T06:25:45.389Z,0
2017-11-23T06:26:53.930Z,0
2017-11-23T06:28:02.742Z,0
2017-11-23T06:29:11.555Z,0
2017-11-23T06:30:20.094Z,0
2017-11-23T06:31:29.449Z,0
2017-11-23T06:32:37.984Z,0
2017-11-23T06:33:46.793Z,0
2017-11-23T06:34:55.334Z,0
2017-11-23T06:36:04.425Z,0
2017-11-23T06:37:13.235Z,0
2017-11-23T06:38:22.061Z,0
2017-11-23T06:39:30.873Z,4
2017-11-23T06:40:39.419Z,4
2017-11-23T06:41:48.249Z,4
2017-11-23T06:42:57.617Z,8
2017-11-23T06:44:06.431Z,4
2017-11-23T06:45:14.970Z,8
2017-11-23T06:46:23.778Z,8
2017-11-23T06:47:32.587Z,12
2017-11-23T06:48:41.399Z,16
2017-11-23T06:49:50.210Z,16
2017-11-23T06:50:59.018Z,24
2017-11-23T06:52:07.834Z,28
2017-11-23T06:53:16.918Z,28
2017-11-23T06:54:25.732Z,32
2017-11-23T06:55:34.337Z,36
2017-11-23T06:56:42.951Z,44
2017-11-23T06:57:52.311Z,52
2017-11-23T06:59:01.397Z,60
2017-11-23T07:00:10.475Z,104
2017-11-23T07:01:19.286Z,140
2017-11-23T07:02:27.828Z,164
2017-11-23T07:03:36.370Z,176
2017-11-23T07:04:44.907Z,192
2017-11-23T07:05:53.491Z,208
2017-11-23T07:07:02.300Z,212
2017-11-23T07:08:10.842Z,220
2017-11-23T07:09:19.662Z,232
2017-11-23T07:10:28.481Z,240
2017-11-23T07:11:37.020Z,248
2017-11-23T07:12:45.560Z,264
2017-11-23T07:13:54.375Z,272
2017-11-23T07:15:03.174Z,292
2017-11-23T07:16:12.540Z,312
2017-11-23T07:17:21.356Z,328
2017-11-23T07:18:30.447Z,352
2017-11-23T07:19:39.561Z,368
2017-11-23T07:20:48.501Z,388
2017-11-23T07:21:57.590Z,412
2017-11-23T07:23:06.679Z,436
2017-11-23T07:24:15.502Z,460
2017-11-23T07:25:24.356Z,488
2017-11-23T07:26:33.106Z,512
2017-11-23T07:27:41.658Z,540
2017-11-23T07:28:50.471Z,564
2017-11-23T07:29:59.553Z,588
2017-11-23T07:31:08.633Z,616
2017-11-23T07:32:17.741Z,636
2017-11-23T07:33:26.308Z,656
2017-11-23T07:34:35.408Z,680
2017-11-23T07:35:44.049Z,704
2017-11-23T07:36:53.008Z,724
2017-11-23T07:38:01.558Z,740
2017-11-23T07:39:11.021Z,768
2017-11-23T07:40:19.992Z,800
2017-11-23T07:41:28.543Z,864
2017-11-23T07:42:37.356Z,872
2017-11-23T07:43:46.169Z,888
2017-11-23T07:44:54.729Z,916
2017-11-23T07:46:03.325Z,976
2017-11-23T07:47:12.692Z,1000
2017-11-23T07:48:21.507Z,1052
2017-11-23T07:49:30.058Z,1120
2017-11-23T07:50:38.599Z,1292
2017-11-23T07:51:47.409Z,1572
2017-11-23T07:52:56.236Z,1512
2017-11-23T07:54:05.319Z,1748
2017-11-23T07:55:14.135Z,1884
2017-11-23T07:56:22.939Z,1692
2017-11-23T07:57:31.750Z,1472
2017-11-23T07:58:40.307Z,1908
2017-11-23T07:59:49.131Z,2412
2017-11-23T08:00:57.666Z,2208
2017-11-23T08:02:06.500Z,1868
2017-11-23T08:03:15.048Z,1768
2017-11-23T08:04:24.135Z,1356
2017-11-23T08:05:32.673Z,1416
2017-11-23T08:06:41.488Z,1804
2017-11-23T08:07:50.640Z,1928
2017-11-23T08:08:59.188Z,1676
2017-11-23T08:10:08.013Z,1568
2017-11-23T08:11:16.828Z,1560
2017-11-23T08:12:25.657Z,1280
2017-11-23T08:13:34.226Z,1156
2017-11-23T08:14:43.048Z,1160
2017-11-23T08:15:51.589Z,1252
2017-11-23T08:17:00.129Z,1296
2017-11-23T08:18:08.946Z,1748
2017-11-23T08:19:18.048Z,2424
2017-11-23T08:20:26.869Z,2120
2017-11-23T08:21:36.235Z,1648
2017-11-23T08:22:45.344Z,1632
2017-11-23T08:23:54.168Z,1728
2017-11-23T08:25:02.725Z,1404
2017-11-23T08:26:11.273Z,1420
2017-11-23T08:27:20.113Z,1788
2017-11-23T08:28:28.921Z,1696
2017-11-23T08:29:37.779Z,1696
2017-11-23T08:30:46.658Z,1532
2017-11-23T08:31:55.471Z,1292
2017-11-23T08:33:04.723Z,1204
2017-11-23T08:34:13.303Z,996
2017-11-23T08:35:23.937Z,1332
2017-11-23T08:36:32.773Z,2004
2017-11-23T08:37:42.382Z,2596
2017-11-23T08:38:50.925Z,2356
2017-11-23T08:40:00.013Z,1808
2017-11-23T08:41:08.826Z,2200
2017-11-23T08:42:17.372Z,2284
2017-11-23T08:43:26.300Z,2400
2017-11-23T08:44:34.877Z,2448
2017-11-23T08:45:43.723Z,2492
2017-11-23T08:46:52.269Z,2456
2017-11-23T08:48:01.084Z,2676
2017-11-23T08:49:09.772Z,2208
2017-11-23T08:50:18.587Z,1880
2017-11-23T08:51:27.447Z,1536
2017-11-23T08:52:36.293Z,1516
2017-11-23T08:53:44.947Z,1928
2017-11-23T08:54:53.516Z,2828
2017-11-23T08:56:02.342Z,2840
2017-11-23T08:57:10.872Z,2592
2017-11-23T08:58:19.743Z,1800
2017-11-23T08:59:28.568Z,1440
2017-11-23T09:00:37.686Z,1528
2017-11-23T09:01:46.522Z,1844
2017-11-23T09:02:55.336Z,1712
2017-11-23T09:04:04.161Z,1536
2017-11-23T09:05:12.698Z,1724
2017-11-23T09:06:21.241Z,2168
2017-11-23T09:07:30.123Z,2308
2017-11-23T09:08:39.888Z,2548
2017-11-23T09:09:48.996Z,2496
2017-11-23T09:10:58.123Z,2068
2017-11-23T09:12:07.012Z,1864
2017-11-23T09:13:15.921Z,1768
2017-11-23T09:14:24.749Z,2048
2017-11-23T09:15:33.565Z,2272
2017-11-23T09:16:42.108Z,2188
2017-11-23T09:17:50.924Z,2324
2017-11-23T09:19:00.014Z,2420
2017-11-23T09:20:08.840Z,2340
2017-11-23T09:21:17.382Z,2116
2017-11-23T09:22:26.212Z,1680
2017-11-23T09:23:35.030Z,1512
2017-11-23T09:24:43.857Z,1532
2017-11-23T09:25:52.676Z,1624
2017-11-23T09:27:01.763Z,1672
2017-11-23T09:28:10.319Z,1576
2017-11-23T09:29:19.201Z,1500
2017-11-23T09:30:28.039Z,1688
2017-11-23T09:31:36.583Z,1788
2017-11-23T09:32:45.397Z,1676
2017-11-23T09:33:54.505Z,1528
2017-11-23T09:35:03.057Z,1452
2017-11-23T09:36:12.430Z,1584
2017-11-23T09:37:20.974Z,1496
2017-11-23T09:38:29.526Z,1696
2017-11-23T09:39:38.624Z,1820
2017-11-23T09:40:47.446Z,1688
2017-11-23T09:41:56.810Z,1508
2017-11-23T09:43:05.356Z,1708
2017-11-23T09:44:13.972Z,1880
2017-11-23T09:45:23.069Z,1728
2017-11-23T09:46:31.878Z,1772
2017-11-23T09:47:40.721Z,1584
2017-11-23T09:48:49.602Z,1604
2017-11-23T09:49:58.146Z,1760
2017-11-23T09:51:06.961Z,1872
2017-11-23T09:52:15.507Z,1604
2017-11-23T09:53:24.053Z,1540
2017-11-23T09:54:32.876Z,1764
2017-11-23T09:55:41.420Z,1548
2017-11-23T09:56:49.959Z,1388
2017-11-23T09:57:58.778Z,1376
2017-11-23T09:59:08.145Z,1464
2017-11-23T10:00:17.275Z,1160
2017-11-23T10:01:26.094Z,1336
2017-11-23T10:02:35.508Z,1232
2017-11-23T10:03:44.322Z,1256
2017-11-23T10:04:52.887Z,1468
2017-11-23T10:06:01.449Z,1804
2017-11-23T10:07:10.270Z,1612
2017-11-23T10:08:18.841Z,1680
2017-11-23T10:09:27.927Z,1956
2017-11-23T10:10:36.784Z,1724
2017-11-23T10:11:45.875Z,2656
2017-11-23T10:12:54.420Z,2376
2017-11-23T10:14:03.241Z,1728
2017-11-23T10:15:11.780Z,1312
2017-11-23T10:16:20.323Z,1428
2017-11-23T10:17:29.438Z,1484
2017-11-23T10:18:38.009Z,1396
2017-11-23T10:19:46.527Z,1548
2017-11-23T10:20:55.340Z,1216
2017-11-23T10:22:04.700Z,1264
2017-11-23T10:23:13.962Z,1368
2017-11-23T10:24:22.775Z,1676
2017-11-23T10:25:31.870Z,1676
2017-11-23T10:26:40.419Z,1212
2017-11-23T10:27:49.223Z,1276
2017-11-23T10:28:58.315Z,1516
2017-11-23T10:30:07.432Z,1444
2017-11-23T10:31:16.245Z,1696
2017-11-23T10:32:24.820Z,1688
2017-11-23T10:33:35.619Z,1548
2017-11-23T10:34:45.126Z,1560
2017-11-23T10:35:53.671Z,1756
2017-11-23T10:37:02.229Z,1848
2017-11-23T10:38:11.436Z,1600
2017-11-23T10:39:20.806Z,1608
2017-11-23T10:40:29.893Z,1972
2017-11-23T10:41:38.979Z,1828
2017-11-23T10:42:47.783Z,2284
2017-11-23T10:43:57.145Z,2892
2017-11-23T10:45:06.236Z,3236
2017-11-23T10:46:15.322Z,3280
2017-11-23T10:47:23.870Z,3248
2017-11-23T10:48:32.681Z,3208
2017-11-23T10:49:41.234Z,3212
2017-11-23T10:50:49.782Z,3024
2017-11-23T10:51:58.353Z,2380
2017-11-23T10:53:06.906Z,2688
2017-11-23T10:54:15.506Z,3220
2017-11-23T10:55:24.597Z,3512
2017-11-23T10:56:33.149Z,3608
2017-11-23T10:57:41.981Z,3648
2017-11-23T10:58:51.003Z,4772
2017-11-23T10:59:59.821Z,4884
2017-11-23T11:01:08.641Z,5128
2017-11-23T11:02:17.451Z,5168
2017-11-23T11:03:25.998Z,4520
2017-11-23T11:04:35.089Z,4172
2017-11-23T11:05:43.633Z,4120
2017-11-23T11:06:52.175Z,3904
2017-11-23T11:08:00.989Z,4544
2017-11-23T11:09:09.534Z,4736
2017-11-23T11:10:18.075Z,5156
2017-11-23T11:11:26.902Z,5156
2017-11-23T11:12:36.263Z,5144
2017-11-23T11:13:45.354Z,5580
2017-11-23T11:14:54.166Z,5636
2017-11-23T11:16:03.252Z,4792
2017-11-23T11:17:12.063Z,4748
2017-11-23T11:18:20.656Z,4800
2017-11-23T11:19:29.471Z,5064
2017-11-23T11:20:38.295Z,4200
2017-11-23T11:21:46.858Z,3688
2017-11-23T11:22:55.411Z,3348
2017-11-23T11:24:04.501Z,3280
2017-11-23T11:25:13.587Z,3352
2017-11-23T11:26:22.674Z,3136
2017-11-23T11:27:31.215Z,3208
2017-11-23T11:28:40.588Z,3452
2017-11-23T11:29:49.408Z,3496
2017-11-23T11:30:57.950Z,3852
2017-11-23T11:32:06.773Z,3516
2017-11-23T11:33:15.589Z,3568
2017-11-23T11:34:24.676Z,3352
2017-11-23T11:35:33.222Z,3424
2017-11-23T11:36:41.762Z,4252
2017-11-23T11:37:50.305Z,4356
2017-11-23T11:38:59.126Z,3552
2017-11-23T11:40:07.754Z,3628
2017-11-23T11:41:16.568Z,3992
2017-11-23T11:42:25.114Z,3920
2017-11-23T11:43:33.665Z,3632
2017-11-23T11:44:42.484Z,3384
2017-11-23T11:45:51.299Z,4016
2017-11-23T11:47:00.111Z,4656
2017-11-23T11:48:09.224Z,4928
2017-11-23T11:49:17.775Z,4780
2017-11-23T11:50:26.596Z,4192
2017-11-23T11:51:35.402Z,4532
2017-11-23T11:52:43.954Z,3980
2017-11-23T11:53:53.056Z,3928
2017-11-23T11:55:01.601Z,4144
2017-11-23T11:56:10.688Z,4156
2017-11-23T11:57:19.236Z,4332
2017-11-23T11:58:28.050Z,4272
2017-11-23T11:59:36.867Z,4296
2017-11-23T12:00:45.716Z,4056
2017-11-23T12:01:54.800Z,4588
2017-11-23T12:03:03.614Z,4496
2017-11-23T12:04:12.161Z,3212
2017-11-23T12:05:21.521Z,3828
2017-11-23T12:06:30.613Z,4020
2017-11-23T12:07:39.160Z,4480
2017-11-23T12:08:47.977Z,4620
2017-11-23T12:09:57.057Z,4388
2017-11-23T12:11:06.141Z,4660
2017-11-23T12:12:14.957Z,4324
2017-11-23T12:13:24.061Z,3552
2017-11-23T12:14:32.881Z,3268
2017-11-23T12:15:41.428Z,2824
2017-11-23T12:16:50.249Z,2968
2017-11-23T12:17:58.795Z,3212
2017-11-23T12:19:07.611Z,4172
2017-11-23T12:20:16.424Z,4500
2017-11-23T12:21:24.969Z,5000
2017-11-23T12:22:33.511Z,4840
2017-11-23T12:23:42.327Z,4048
2017-11-23T12:24:51.290Z,3500
2017-11-23T12:25:59.840Z,4592
2017-11-23T12:27:08.380Z,3404
2017-11-23T12:28:16.924Z,2724
2017-11-23T12:29:25.465Z,2480
2017-11-23T12:30:34.644Z,1460
2017-11-23T12:31:43.187Z,2080
2017-11-23T12:32:52.274Z,2060
2017-11-23T12:34:00.820Z,2260
2017-11-23T12:35:09.387Z,3044
2017-11-23T12:36:17.972Z,2464
2017-11-23T12:37:26.794Z,2772
2017-11-23T12:38:35.607Z,3364
2017-11-23T12:39:44.155Z,2952
2017-11-23T12:40:53.246Z,2540
2017-11-23T12:42:02.336Z,1728
2017-11-23T12:43:10.878Z,1600
2017-11-23T12:44:19.695Z,1668
2017-11-23T12:45:28.248Z,1936
2017-11-23T12:46:37.062Z,2660
2017-11-23T12:47:45.632Z,2852
2017-11-23T12:48:54.183Z,2348
2017-11-23T12:50:03.285Z,1772
2017-11-23T12:51:12.104Z,2124
2017-11-23T12:52:21.195Z,1700
2017-11-23T12:53:30.276Z,2140
2017-11-23T12:54:39.097Z,2292
2017-11-23T12:55:47.917Z,1788
2017-11-23T12:56:56.459Z,1832
2017-11-23T12:58:06.095Z,2264
2017-11-23T12:59:14.640Z,2168
2017-11-23T13:00:23.453Z,3192
2017-11-23T13:01:32.269Z,3304
2017-11-23T13:02:40.811Z,3324
2017-11-23T13:03:49.353Z,3960
2017-11-23T13:04:57.895Z,3564
2017-11-23T13:06:06.989Z,3604
2017-11-23T13:07:15.803Z,3760
2017-11-23T13:08:24.618Z,3688
2017-11-23T13:09:33.713Z,3672
2017-11-23T13:10:42.522Z,2980
2017-11-23T13:11:51.066Z,2760
2017-11-23T13:12:59.884Z,2976
2017-11-23T13:14:09.041Z,3656
2017-11-23T13:15:18.128Z,3228
2017-11-23T13:16:26.673Z,3188
2017-11-23T13:17:35.220Z,3480
2017-11-23T13:18:43.762Z,3500
2017-11-23T13:19:52.383Z,3020
2017-11-23T13:21:00.937Z,2764
2017-11-23T13:22:09.482Z,2712
2017-11-23T13:23:18.317Z,2692
2017-11-23T13:24:27.408Z,2384
2017-11-23T13:25:36.270Z,2436
2017-11-23T13:26:45.084Z,2720
2017-11-23T13:27:53.692Z,2560
2017-11-23T13:29:02.509Z,2384
2017-11-23T13:30:11.600Z,2892
2017-11-23T13:31:20.800Z,3232
2017-11-23T13:32:29.344Z,2936
2017-11-23T13:33:38.160Z,2668
2017-11-23T13:34:46.711Z,2768
2017-11-23T13:35:55.812Z,2492
2017-11-23T13:37:04.903Z,2328
2017-11-23T13:38:13.727Z,2220
2017-11-23T13:39:22.541Z,2112
2017-11-23T13:40:31.908Z,1500
2017-11-23T13:41:40.460Z,1472
2017-11-23T13:42:49.550Z,1380
2017-11-23T13:43:58.362Z,1380
2017-11-23T13:45:07.178Z,1504
2017-11-23T13:46:15.722Z,2020
2017-11-23T13:47:24.811Z,1944
2017-11-23T13:48:33.875Z,2060
2017-11-23T13:49:42.696Z,1872
2017-11-23T13:50:51.506Z,1904
2017-11-23T13:52:00.053Z,1968
2017-11-23T13:53:08.595Z,2012
2017-11-23T13:54:17.630Z,1812
2017-11-23T13:55:27.082Z,1388
2017-11-23T13:56:35.724Z,1736
2017-11-23T13:57:44.534Z,1884
2017-11-23T13:58:53.081Z,1948
2017-11-23T14:00:01.900Z,1456
2017-11-23T14:01:10.720Z,1588
2017-11-23T14:02:19.263Z,1588
2017-11-23T14:03:27.815Z,1732
2017-11-23T14:04:36.640Z,2312
2017-11-23T14:05:45.468Z,2932
2017-11-23T14:06:54.559Z,2980
2017-11-23T14:08:03.105Z,2500
2017-11-23T14:09:11.650Z,2096
2017-11-23T14:10:20.470Z,1720
2017-11-23T14:11:29.016Z,1632
2017-11-23T14:12:37.835Z,1776
2017-11-23T14:13:46.646Z,1844
2017-11-23T14:14:55.469Z,1452
2017-11-23T14:16:04.286Z,1472
2017-11-23T14:17:12.839Z,1624
2017-11-23T14:18:21.807Z,1548
2017-11-23T14:19:30.629Z,1572
2017-11-23T14:20:40.146Z,1348
2017-11-23T14:21:49.584Z,1080
2017-11-23T14:22:58.406Z,660
2017-11-23T14:24:06.953Z,420
2017-11-23T14:25:16.734Z,352
2017-11-23T14:26:25.278Z,292
2017-11-23T14:27:33.821Z,264
2017-11-23T14:28:43.211Z,248
2017-11-23T14:29:52.297Z,244
2017-11-23T14:31:00.839Z,252
2017-11-23T14:32:09.924Z,232
2017-11-23T14:33:18.921Z,260
2017-11-23T14:34:27.914Z,220
2017-11-23T14:35:36.458Z,192
2017-11-23T14:36:45.000Z,168
2017-11-23T14:37:53.824Z,156
2017-11-23T14:39:02.369Z,152
2017-11-23T14:40:11.466Z,136
2017-11-23T14:41:20.279Z,120
2017-11-23T14:42:29.095Z,132
2017-11-23T14:43:37.906Z,132
2017-11-23T14:44:46.995Z,160
2017-11-23T14:45:55.809Z,184
2017-11-23T14:47:04.626Z,212
2017-11-23T14:48:13.166Z,256
2017-11-23T14:49:21.708Z,288
2017-11-23T14:50:30.531Z,320
2017-11-23T14:51:39.345Z,268
2017-11-23T14:52:47.887Z,264
2017-11-23T14:53:56.981Z,432
2017-11-23T14:55:05.805Z,608
2017-11-23T14:56:14.352Z,712
2017-11-23T14:57:23.168Z,748
2017-11-23T14:58:32.031Z,784
2017-11-23T14:59:40.671Z,788
2017-11-23T15:00:49.383Z,768
2017-11-23T15:01:58.752Z,788
2017-11-23T15:03:08.608Z,768
2017-11-23T15:04:17.368Z,736
2017-11-23T15:05:26.927Z,704
2017-11-23T15:06:35.745Z,776
2017-11-23T15:07:44.844Z,1056
2017-11-23T15:08:53.655Z,1324
2017-11-23T15:10:02.738Z,1268
2017-11-23T15:11:11.832Z,1028
2017-11-23T15:12:20.376Z,928
2017-11-23T15:13:28.914Z,828
2017-11-23T15:14:37.455Z,760
2017-11-23T15:15:46.372Z,700
2017-11-23T15:16:55.182Z,576
2017-11-23T15:18:04.027Z,436
2017-11-23T15:19:12.990Z,372
2017-11-23T15:20:21.810Z,356
2017-11-23T15:21:30.354Z,364
2017-11-23T15:22:39.166Z,372
2017-11-23T15:23:48.260Z,360
2017-11-23T15:24:56.797Z,336
2017-11-23T15:26:05.362Z,304
2017-11-23T15:27:13.903Z,284
2017-11-23T15:28:22.436Z,284
2017-11-23T15:29:31.278Z,280
2017-11-23T15:30:40.361Z,264
2017-11-23T15:31:49.447Z,232
2017-11-23T15:32:58.270Z,216
2017-11-23T15:34:07.082Z,192
2017-11-23T15:35:15.622Z,172
2017-11-23T15:36:26.254Z,176
2017-11-23T15:37:38.230Z,172
2017-11-23T15:38:52.951Z,164
2017-11-23T15:40:16.373Z,156
2017-11-23T15:41:28.684Z,140
2017-11-23T15:42:41.299Z,132
2017-11-23T15:43:53.023Z,128
2017-11-23T15:45:04.988Z,128
2017-11-23T15:46:17.067Z,120
2017-11-23T15:47:28.621Z,116
2017-11-23T15:48:41.219Z,112
2017-11-23T15:49:53.151Z,108
2017-11-23T15:51:05.301Z,96
2017-11-23T15:52:16.549Z,96
2017-11-23T15:53:28.152Z,88
2017-11-23T15:54:39.405Z,84
2017-11-23T15:55:50.715Z,80
2017-11-23T15:57:01.944Z,80
2017-11-23T15:58:13.539Z,76
2017-11-23T15:59:25.504Z,76
2017-11-23T16:00:37.215Z,76
2017-11-23T16:01:49.121Z,76
2017-11-23T16:03:00.545Z,72
2017-11-23T16:04:12.988Z,76